Time;durP1;ratioP1;P1;durP2;ratioP2;P2;SDS_P1;SDS_P2;PMS_P1;PMS_P2;Temp;Humidity;BMP_temperature;BMP_pressure;BME280_temperature;BME280_humidity;BME280_pressure;Samples;Min_cycle;Max_cycle;Signal;HPM_P1;HPM_P2
2021/03/18 00:01:43;;;;;;;16.20;9.20;;;;;;;4.86;100.00;100548.81;5071746;28;20399;-72
2021/03/18 00:04:11;;;;;;;12.30;8.23;;;;;;;4.84;100.00;100547.19;5071550;28;20414;-80
2021/03/18 00:06:38;;;;;;;8.77;5.47;;;;;;;4.85;100.00;100546.28;5071476;28;20459;-71
2021/03/18 00:09:06;;;;;;;12.37;6.53;;;;;;;4.81;100.00;100547.31;5071824;28;20409;-74
2021/03/18 00:11:32;;;;;;;9.37;6.10;;;;;;;4.81;100.00;100555.13;5071590;28;20406;-78
2021/03/18 00:13:58;;;;;;;11.10;7.03;;;;;;;4.80;100.00;100546.47;5070798;28;20450;-71
2021/03/18 00:16:23;;;;;;;8.47;4.40;;;;;;;4.78;100.00;100556.13;5071704;28;20179;-70
2021/03/18 00:18:51;;;;;;;9.70;6.00;;;;;;;4.79;100.00;100550.00;5071879;28;20171;-80
2021/03/18 00:21:17;;;;;;;9.60;6.73;;;;;;;4.78;100.00;100550.09;5071747;28;20242;-74
2021/03/18 00:23:43;;;;;;;13.47;9.03;;;;;;;4.77;100.00;100551.84;5070994;28;20480;-77
2021/03/18 00:26:09;;;;;;;13.37;8.30;;;;;;;4.75;100.00;100548.44;5071741;28;20991;-76
2021/03/18 00:28:36;;;;;;;12.80;9.03;;;;;;;4.76;100.00;100546.69;5071504;28;20619;-80
2021/03/18 00:31:03;;;;;;;15.07;8.20;;;;;;;4.83;100.00;100541.13;5070756;28;20415;-73
2021/03/18 00:33:29;;;;;;;10.40;6.80;;;;;;;4.83;100.00;100540.28;5070179;28;20509;-75
2021/03/18 00:35:55;;;;;;;12.57;6.50;;;;;;;4.82;100.00;100529.03;5071270;28;20421;-79
2021/03/18 00:38:23;;;;;;;14.27;7.23;;;;;;;4.80;100.00;100543.88;5071509;28;20536;-78
2021/03/18 00:40:58;;;;;;;17.23;9.27;;;;;;;4.84;100.00;100547.19;5071535;28;20454;-80
2021/03/18 00:43:24;;;;;;;11.57;7.47;;;;;;;4.87;100.00;100554.84;5071012;28;20422;-70
2021/03/18 00:45:50;;;;;;;16.20;9.60;;;;;;;4.81;100.00;100550.78;5071201;28;20963;-77
2021/03/18 00:48:18;;;;;;;10.30;6.87;;;;;;;4.81;100.00;100552.53;5071141;28;20426;-73
2021/03/18 00:50:49;;;;;;;12.73;8.33;;;;;;;4.78;100.00;100552.69;5064168;28;20406;-78
2021/03/18 00:53:18;;;;;;;12.87;7.70;;;;;;;4.78;100.00;100550.09;5071067;28;20907;-76
2021/03/18 00:55:44;;;;;;;8.77;5.97;;;;;;;4.72;100.00;100548.59;5053066;28;20518;-77
2021/03/18 00:58:10;;;;;;;12.97;9.70;;;;;;;4.70;100.00;100548.66;5071437;28;20478;-72
2021/03/18 01:00:44;;;;;;;9.83;7.67;;;;;;;4.67;100.00;100566.16;5070400;28;20282;-76
2021/03/18 01:03:12;;;;;;;11.27;6.90;;;;;;;4.67;100.00;100558.34;5070492;28;20421;-75
2021/03/18 01:06:00;;;;;;;13.37;8.10;;;;;;;4.62;100.00;100560.34;5069698;28;20520;-75
2021/03/18 01:08:28;;;;;;;14.93;9.20;;;;;;;4.58;100.00;100558.78;5070808;28;20438;-72
2021/03/18 01:11:02;;;;;;;11.03;7.10;;;;;;;4.60;100.00;100554.34;5070917;28;20418;-72
2021/03/18 01:13:28;;;;;;;14.80;8.60;;;;;;;4.62;100.00;100560.34;5070542;28;20502;-72
2021/03/18 01:15:57;;;;;;;16.60;8.83;;;;;;;4.67;100.00;100558.34;5071031;28;20403;-71
2021/03/18 01:18:26;;;;;;;10.67;7.00;;;;;;;4.61;100.00;100556.91;5070914;28;20916;-73
2021/03/18 01:20:52;;;;;;;13.17;7.90;;;;;;;4.52;100.00;100549.50;5070015;28;20446;-71
2021/03/18 01:23:17;;;;;;;12.93;6.67;;;;;;;4.43;100.00;100553.34;5070333;28;20849;-71
2021/03/18 01:25:43;;;;;;;13.70;9.60;;;;;;;4.35;100.00;100559.81;5070945;28;20164;-73
2021/03/18 01:28:10;;;;;;;11.93;8.50;;;;;;;4.35;100.00;100552.00;5070394;28;20176;-73
2021/03/18 01:30:37;;;;;;;15.80;9.50;;;;;;;4.27;100.00;100546.28;5070610;28;20552;-70
2021/03/18 01:33:03;;;;;;;14.13;8.90;;;;;;;4.24;100.00;100559.44;5069587;28;20423;-76
2021/03/18 01:35:30;;;;;;;13.57;8.13;;;;;;;4.18;100.00;100552.75;5070568;28;20464;-76
2021/03/18 01:37:55;;;;;;;14.90;9.10;;;;;;;4.21;100.00;100572.56;5070182;28;20480;-70
2021/03/18 01:40:24;;;;;;;13.40;7.80;;;;;;;4.20;100.00;100569.13;5070204;28;21001;-70
2021/03/18 01:42:50;;;;;;;11.93;8.30;;;;;;;4.17;100.00;100561.47;5071082;28;20203;-76
2021/03/18 01:45:16;;;;;;;10.90;6.30;;;;;;;4.22;100.00;100553.44;5074566;28;20895;-76
2021/03/18 01:47:44;;;;;;;12.87;8.30;;;;;;;4.21;100.00;100559.56;5073931;28;20468;-78
2021/03/18 01:50:11;;;;;;;13.30;8.30;;;;;;;4.23;100.00;100562.94;5074121;28;20414;-72
2021/03/18 01:52:37;;;;;;;12.50;8.10;;;;;;;4.20;100.00;100563.06;5074120;28;20505;-77
2021/03/18 01:55:09;;;;;;;14.47;8.50;;;;;;;4.17;100.00;100564.91;5074544;28;20394;-76
2021/03/18 01:57:37;;;;;;;11.50;7.70;;;;;;;4.21;100.00;100556.97;5073967;28;20403;-80
2021/03/18 02:00:07;;;;;;;10.47;7.10;;;;;;;4.26;100.00;100555.84;5072735;28;20453;-71
2021/03/18 02:02:34;;;;;;;12.20;7.43;;;;;;;4.26;100.00;100555.84;5075133;28;20429;-77
2021/03/18 02:05:00;;;;;;;10.97;7.07;;;;;;;4.22;100.00;100569.88;5073817;28;20438;-76
2021/03/18 02:07:25;;;;;;;12.20;7.13;;;;;;;4.32;100.00;100559.94;5087175;28;21001;-73
2021/03/18 02:09:51;;;;;;;10.97;7.10;;;;;;;4.43;100.00;100568.94;5074550;28;20176;-76
2021/03/18 02:12:17;;;;;;;11.30;6.83;;;;;;;4.47;100.00;100563.63;5073961;28;20152;-74
2021/03/18 02:14:43;;;;;;;15.73;6.70;;;;;;;4.49;100.00;100564.41;5079506;28;20419;-74
2021/03/18 02:17:11;;;;;;;9.03;6.33;;;;;;;4.58;100.00;100550.97;5082715;28;20429;-75
2021/03/18 02:19:45;;;;;;;7.23;4.90;;;;;;;4.68;100.00;100554.84;5074187;28;20195;-71
2021/03/18 02:22:56;;;;;;;8.97;6.37;;;;;;;4.71;100.00;100552.97;5073637;28;20473;-77
2021/03/18 02:25:35;;;;;;;8.90;6.57;;;;;;;4.74;100.00;100551.97;5049068;28;20430;-76
2021/03/18 02:28:10;;;;;;;8.03;5.47;;;;;;;4.78;100.00;100555.28;5080242;28;20405;-75
2021/03/18 02:31:13;;;;;;;17.47;16.13;;;;;;;4.76;100.00;100542.34;5070379;28;20449;-78
2021/03/18 02:34:10;;;;;;;8.40;5.30;;;;;;;4.69;100.00;100554.78;5060432;28;20422;-76
2021/03/18 02:36:40;;;;;;;8.67;5.73;;;;;;;4.71;100.00;100559.91;5073712;28;20532;-71
2021/03/18 02:39:14;;;;;;;7.50;4.40;;;;;;;4.74;100.00;100552.81;5069984;28;20437;-76
2021/03/18 02:41:51;;;;;;;6.33;4.30;;;;;;;4.77;100.00;100557.03;5071007;28;20449;-74
2021/03/18 02:44:20;;;;;;;7.23;4.53;;;;;;;4.78;100.00;100563.94;5069126;28;20437;-73
2021/03/18 02:46:49;;;;;;;9.47;5.87;;;;;;;4.79;100.00;100565.63;5072655;28;20512;-76
2021/03/18 02:49:18;;;;;;;9.20;5.70;;;;;;;4.78;100.00;100565.69;5070649;28;20427;-73
2021/03/18 02:51:44;;;;;;;6.20;4.70;;;;;;;4.78;100.00;100578.72;5071879;28;20940;-77
2021/03/18 02:54:12;;;;;;;6.53;4.63;;;;;;;4.77;100.00;100567.47;5072085;28;20846;-76
2021/03/18 02:56:43;;;;;;;8.10;4.83;;;;;;;4.76;100.00;100581.38;5079626;28;20752;-76
2021/03/18 02:59:12;;;;;;;7.83;5.43;;;;;;;4.69;100.00;100578.22;5072928;28;20443;-80
2021/03/18 03:01:42;;;;;;;9.23;5.37;;;;;;;4.65;100.00;100587.06;5059592;28;21075;-79
2021/03/18 03:04:09;;;;;;;7.27;4.97;;;;;;;4.61;100.00;100585.53;5083520;28;20413;-78
2021/03/18 03:06:36;;;;;;;6.33;4.27;;;;;;;4.59;100.00;100597.72;5076285;28;20450;-78
2021/03/18 03:09:04;;;;;;;6.00;3.87;;;;;;;4.60;100.00;100604.63;5075627;28;20943;-81
2021/03/18 03:11:32;;;;;;;5.50;3.97;;;;;;;4.61;100.00;100610.66;5070856;28;20449;-78
2021/03/18 03:13:58;;;;;;;7.13;4.50;;;;;;;4.61;100.00;100608.94;5072828;28;20426;-82
2021/03/18 03:16:25;;;;;;;9.03;5.83;;;;;;;4.62;100.00;100615.81;5073341;28;20797;-81
2021/03/18 03:18:52;;;;;;;8.60;5.37;;;;;;;4.60;100.00;100624.59;5073185;28;20419;-84
2021/03/18 03:21:19;;;;;;;8.77;6.20;;;;;;;4.52;100.00;100629.28;5072024;28;20451;-83
2021/03/18 03:23:46;;;;;;;7.07;4.73;;;;;;;4.50;100.00;100641.53;5070987;28;20433;-78
2021/03/18 03:26:17;;;;;;;9.90;4.97;;;;;;;4.43;100.00;100648.75;5073467;28;20859;-80
2021/03/18 03:28:43;;;;;;;9.00;6.13;;;;;;;4.27;100.00;100645.94;5071772;28;20429;-81
2021/03/18 03:31:08;;;;;;;8.90;5.57;;;;;;;4.21;100.00;100655.75;5073480;28;20391;-81
2021/03/18 03:33:34;;;;;;;7.10;5.03;;;;;;;4.16;100.00;100654.22;5060994;28;20424;-82
2021/03/18 03:35:59;;;;;;;10.43;4.53;;;;;;;4.15;100.00;100657.69;5067806;28;20215;-81
2021/03/18 03:38:26;;;;;;;6.80;3.63;;;;;;;4.06;100.00;100662.44;5070130;28;20168;-72
2021/03/18 03:40:52;;;;;;;6.33;4.23;;;;;;;3.96;100.00;100667.16;5074258;28;20949;-84
2021/03/18 03:43:18;;;;;;;25.23;6.43;;;;;;;3.85;100.00;100661.53;5072413;28;20419;-81
2021/03/18 03:45:46;;;;;;;7.40;4.60;;;;;;;3.81;100.00;100665.19;5073109;28;20216;-79
2021/03/18 03:48:12;;;;;;;9.90;6.30;;;;;;;3.74;100.00;100664.59;5072079;28;20433;-71
2021/03/18 03:50:39;;;;;;;10.40;6.60;;;;;;;3.73;100.00;100675.88;5071736;28;20427;-80
2021/03/18 03:53:10;;;;;;;10.70;5.87;;;;;;;3.73;100.00;100669.84;5069330;28;20547;-74
2021/03/18 03:56:00;;;;;;;7.07;4.47;;;;;;;3.84;100.00;100667.66;5071694;28;20415;-70
2021/03/18 03:58:40;;;;;;;7.20;4.33;;;;;;;3.86;100.00;100664.13;5070638;28;20810;-71
2021/03/18 04:01:13;;;;;;;7.83;5.17;;;;;;;3.95;100.00;100675.88;5070822;28;20484;-72
2021/03/18 04:03:38;;;;;;;9.90;6.27;;;;;;;3.98;100.00;100674.91;5069524;28;20426;-73
2021/03/18 04:06:06;;;;;;;12.30;6.90;;;;;;;3.99;100.00;100676.59;5070076;28;20925;-73
2021/03/18 04:08:35;;;;;;;6.03;3.90;;;;;;;4.04;100.00;100680.69;5069667;28;20638;-76
2021/03/18 04:11:02;;;;;;;7.07;4.40;;;;;;;4.04;100.00;100683.31;5068761;28;20430;-75
2021/03/18 04:13:30;;;;;;;8.00;5.33;;;;;;;4.03;100.00;100684.22;5068815;28;20517;-77
2021/03/18 04:15:58;;;;;;;5.43;3.07;;;;;;;4.05;100.00;100684.16;5070198;28;20908;-80
2021/03/18 04:18:29;;;;;;;8.30;5.50;;;;;;;4.07;100.00;100684.91;5071437;28;20458;-77
2021/03/18 04:20:57;;;;;;;11.73;5.23;;;;;;;4.11;100.00;100702.09;5071221;28;20968;-78
2021/03/18 04:23:27;;;;;;;13.13;6.20;;;;;;;4.14;100.00;100695.00;5069364;28;21057;-78
2021/03/18 04:25:56;;;;;;;6.43;3.43;;;;;;;4.17;100.00;100709.66;5071065;28;21015;-71
2021/03/18 04:28:21;;;;;;;5.90;4.13;;;;;;;4.22;100.00;100715.50;5071029;28;20963;-74
2021/03/18 04:30:47;;;;;;;7.73;4.27;;;;;;;4.22;100.00;100712.88;5069993;28;20439;-76
2021/03/18 04:33:13;;;;;;;7.83;3.47;;;;;;;4.26;100.00;100724.03;5070014;28;20662;-74
2021/03/18 04:35:41;;;;;;;6.43;4.57;;;;;;;4.29;100.00;100724.72;5072699;28;20544;-77
2021/03/18 04:38:07;;;;;;;8.53;5.00;;;;;;;4.32;100.00;100723.78;5072506;28;20430;-77
2021/03/18 04:40:33;;;;;;;6.00;4.10;;;;;;;4.37;100.00;100737.41;5071695;28;20457;-77
2021/03/18 04:43:00;;;;;;;8.47;3.70;;;;;;;4.41;100.00;100737.25;5069636;28;20466;-78
2021/03/18 04:45:29;;;;;;;10.10;5.40;;;;;;;4.48;100.00;100743.03;5068853;28;20462;-75
2021/03/18 04:47:56;;;;;;;7.63;3.90;;;;;;;4.51;100.00;100744.66;5071303;28;20415;-76
2021/03/18 04:50:23;;;;;;;10.10;5.63;;;;;;;4.55;100.00;100738.44;5070117;28;21003;-77
2021/03/18 04:52:50;;;;;;;10.87;5.60;;;;;;;4.50;100.00;100745.56;5069109;28;20431;-79
2021/03/18 04:55:19;;;;;;;5.77;3.63;;;;;;;4.57;100.00;100753.06;5070674;28;20427;-71
2021/03/18 04:57:48;;;;;;;8.93;5.97;;;;;;;4.58;100.00;100754.75;5068280;28;20509;-79
2021/03/18 05:00:16;;;;;;;9.37;6.33;;;;;;;4.68;100.00;100750.00;5072533;28;21239;-76
2021/03/18 05:02:43;;;;;;;9.80;6.07;;;;;;;4.69;100.00;100759.50;5061272;28;20952;-76
2021/03/18 05:05:13;;;;;;;10.10;6.60;;;;;;;4.79;100.00;100757.34;5068234;28;20427;-73
2021/03/18 05:07:39;;;;;;;9.50;6.00;;;;;;;4.82;100.00;100765.88;5050198;28;21092;-78
2021/03/18 05:10:06;;;;;;;9.40;6.23;;;;;;;4.91;100.00;100772.44;5070588;28;20917;-77
2021/03/18 05:12:33;;;;;;;9.20;6.10;;;;;;;4.92;100.00;100774.16;5068620;28;20437;-72
2021/03/18 05:14:59;;;;;;;16.50;8.70;;;;;;;5.05;100.00;100775.28;5070293;28;20413;-76
2021/03/18 05:17:25;;;;;;;11.37;7.10;;;;;;;5.09;100.00;100773.41;5068272;28;20509;-76
2021/03/18 05:19:51;;;;;;;12.30;7.60;;;;;;;5.09;100.00;100779.47;5074961;28;20921;-78
2021/03/18 05:22:16;;;;;;;11.40;7.00;;;;;;;5.06;100.00;100776.97;5073564;28;20558;-76
2021/03/18 05:24:42;;;;;;;12.50;8.37;;;;;;;5.14;100.00;100785.34;5074329;28;21030;-79
2021/03/18 05:27:08;;;;;;;13.30;7.63;;;;;;;5.24;100.00;100790.97;5072841;28;20292;-77
2021/03/18 05:29:34;;;;;;;11.83;7.33;;;;;;;5.29;100.00;100791.63;5075285;28;20199;-73
2021/03/18 05:31:59;;;;;;;9.20;5.80;;;;;;;5.29;100.00;100800.28;5071282;28;20172;-80
2021/03/18 05:34:25;;;;;;;6.63;3.93;;;;;;;5.28;100.00;100801.16;5073711;28;20264;-77
2021/03/18 05:36:50;;;;;;;9.60;6.60;;;;;;;5.27;100.00;100794.28;5074883;28;20483;-78
2021/03/18 05:39:16;;;;;;;9.57;6.00;;;;;;;5.35;100.00;100798.31;5072705;28;20199;-77
2021/03/18 05:41:43;;;;;;;10.10;4.83;;;;;;;5.37;100.00;100801.72;5072721;28;20673;-77
2021/03/18 05:44:09;;;;;;;8.20;5.40;;;;;;;5.31;100.00;100799.38;5074161;28;20650;-77
2021/03/18 05:46:36;;;;;;;11.10;5.70;;;;;;;5.35;100.00;100808.72;5073135;28;20421;-75
2021/03/18 05:49:03;;;;;;;7.50;4.93;;;;;;;5.25;100.00;100806.53;5074269;28;20387;-74
2021/03/18 05:51:33;;;;;;;9.47;5.60;;;;;;;5.17;100.00;100818.19;5071030;28;20426;-76
2021/03/18 05:54:00;;;;;;;8.80;6.17;;;;;;;5.05;100.00;100816.09;5073975;28;20995;-75
2021/03/18 05:56:25;;;;;;;12.23;6.80;;;;;;;5.07;100.00;100822.97;5072433;28;20959;-77
2021/03/18 05:58:51;;;;;;;7.83;4.60;;;;;;;5.00;100.00;100824.97;5087530;28;20493;-74
2021/03/18 06:01:18;;;;;;;8.13;5.83;;;;;;;5.01;100.00;100831.03;5071698;28;20196;-76
2021/03/18 06:03:45;;;;;;;8.10;5.83;;;;;;;5.03;100.00;100849.19;5053097;28;20513;-76
2021/03/18 06:06:12;;;;;;;8.40;4.87;;;;;;;4.95;100.00;100854.72;5073027;28;20504;-72
2021/03/18 06:08:38;;;;;;;7.23;3.83;;;;;;;4.83;100.00;100857.81;5071893;28;20810;-70
2021/03/18 06:11:05;;;;;;;6.77;4.63;;;;;;;4.68;100.00;100854.91;5071069;28;20944;-73
2021/03/18 06:13:31;;;;;;;11.07;5.93;;;;;;;4.68;100.00;100865.31;5071255;28;20690;-71
2021/03/18 06:15:56;;;;;;;7.27;4.67;;;;;;;4.58;100.00;100871.81;5073116;28;20415;-75
2021/03/18 06:18:22;;;;;;;9.00;4.90;;;;;;;4.55;100.00;100874.56;5072672;28;20432;-76
2021/03/18 06:20:50;;;;;;;11.00;7.83;;;;;;;4.57;100.00;100872.72;5073387;28;20465;-75
2021/03/18 06:23:16;;;;;;;11.27;7.20;;;;;;;4.65;100.00;100877.63;5068742;28;20173;-75
2021/03/18 06:25:42;;;;;;;11.90;6.43;;;;;;;4.68;100.00;100888.75;5070811;28;20430;-74
2021/03/18 06:28:20;;;;;;;10.50;6.20;;;;;;;4.63;100.00;100880.28;5072520;28;20514;-78
2021/03/18 06:30:58;;;;;;;8.70;5.90;;;;;;;4.63;100.00;100884.66;5052602;28;20177;-79
2021/03/18 06:33:26;;;;;;;7.50;4.90;;;;;;;4.68;100.00;100890.50;5055740;28;20400;-72
2021/03/18 06:35:53;;;;;;;7.23;5.53;;;;;;;4.71;100.00;100891.25;5071655;28;20825;-77
2021/03/18 06:38:26;;;;;;;8.47;4.37;;;;;;;4.80;100.00;100886.56;5061879;28;20410;-76
2021/03/18 06:40:51;;;;;;;8.73;5.53;;;;;;;4.94;100.00;100879.06;5076513;28;20488;-74
2021/03/18 06:43:17;;;;;;;10.77;7.27;;;;;;;5.13;100.00;100887.78;5082757;28;20390;-78
2021/03/18 06:45:45;;;;;;;14.60;7.40;;;;;;;5.37;100.00;100891.13;5072057;28;20195;-76
2021/03/18 06:48:15;;;;;;;14.23;8.27;;;;;;;5.61;100.00;100886.59;5073356;28;20240;-69
2021/03/18 06:50:47;;;;;;;10.10;7.33;;;;;;;5.77;100.00;100890.22;5072960;28;20489;-76
2021/03/18 06:53:20;;;;;;;10.00;7.20;;;;;;;5.84;100.00;100885.59;5090278;28;20409;-76
2021/03/18 06:55:46;;;;;;;17.43;7.40;;;;;;;6.03;100.00;100893.44;5072610;28;20422;-75
2021/03/18 06:58:23;;;;;;;18.77;9.40;;;;;;;6.06;100.00;100885.50;5073036;28;20387;-73
2021/03/18 07:01:00;;;;;;;9.07;5.80;;;;;;;6.08;100.00;100889.72;5069534;28;20188;-75
2021/03/18 07:03:29;;;;;;;17.30;9.30;;;;;;;6.09;100.00;100883.56;5072036;28;20433;-71
2021/03/18 07:05:57;;;;;;;13.03;9.17;;;;;;;6.38;100.00;100890.06;5085006;28;20441;-73
2021/03/18 07:08:27;;;;;;;17.40;10.27;;;;;;;6.48;100.00;100885.25;5079016;28;20420;-78
2021/03/18 07:10:53;;;;;;;10.20;5.60;;;;;;;6.63;100.00;100891.50;5091644;28;20764;-76
2021/03/18 07:13:31;;;;;;;10.20;6.73;;;;;;;6.61;100.00;100880.28;5093704;28;20742;-79
2021/03/18 07:15:58;;;;;;;6.30;4.40;;;;;;;6.61;100.00;100890.72;5093320;28;20386;-77
2021/03/18 07:18:25;;;;;;;7.00;4.00;;;;;;;6.61;100.00;100890.72;5092879;28;20401;-73
2021/03/18 07:20:58;;;;;;;14.27;8.03;;;;;;;6.61;100.00;100890.72;5077866;28;20466;-74
2021/03/18 07:23:45;;;;;;;11.00;6.73;;;;;;;6.82;100.00;100892.31;5072309;28;20437;-72
2021/03/18 07:26:22;;;;;;;12.53;9.07;;;;;;;6.92;100.00;100879.63;5071427;28;20418;-74
2021/03/18 07:28:50;;;;;;;13.10;8.57;;;;;;;7.13;100.00;100882.97;5035088;28;20418;-76
2021/03/18 07:31:17;;;;;;;12.10;7.30;;;;;;;7.33;100.00;100880.19;5074784;28;20735;-73
2021/03/18 07:33:44;;;;;;;9.30;4.90;;;;;;;7.17;100.00;100877.47;5054110;28;20985;-76
2021/03/18 07:36:12;;;;;;;13.73;6.70;;;;;;;7.04;100.00;100892.09;5071559;28;20490;-75
2021/03/18 07:38:39;;;;;;;7.70;5.70;;;;;;;7.18;100.00;100888.81;5071320;28;20840;-79
2021/03/18 07:41:14;;;;;;;9.27;6.20;;;;;;;7.21;100.00;100886.03;5070344;28;20443;-78
2021/03/18 07:43:44;;;;;;;10.10;6.50;;;;;;;7.23;100.00;100889.41;5070832;28;20409;-79
2021/03/18 07:46:15;;;;;;;10.03;7.13;;;;;;;7.31;100.00;100896.84;5069103;28;20403;-79
2021/03/18 07:48:48;;;;;;;9.73;6.50;;;;;;;7.44;100.00;100887.47;5069825;28;20418;-72
2021/03/18 07:51:16;;;;;;;11.93;6.93;;;;;;;7.23;100.00;100887.63;5090080;28;20398;-73
2021/03/18 07:53:45;;;;;;;16.10;8.57;;;;;;;7.68;100.00;100887.97;5073936;28;20775;-78
2021/03/18 07:56:14;;;;;;;14.77;8.80;;;;;;;8.04;100.00;100879.94;5057390;28;20406;-78
2021/03/18 07:58:45;;;;;;;7.90;4.93;;;;;;;8.08;100.00;100873.59;5070676;28;20414;-78
2021/03/18 08:01:32;;;;;;;14.20;9.10;;;;;;;8.12;100.00;100874.28;5059480;28;20536;-79
2021/03/18 08:04:00;;;;;;;11.10;7.63;;;;;;;8.27;100.00;100873.44;5071295;28;20417;-71
2021/03/18 08:06:41;;;;;;;21.17;9.10;;;;;;;8.44;100.00;100869.94;5070677;28;20442;-74
2021/03/18 08:09:37;;;;;;;10.53;6.63;;;;;;;8.68;100.00;100872.94;5070907;28;20470;-78
2021/03/18 08:12:02;;;;;;;11.83;8.40;;;;;;;8.89;100.00;100869.09;5071046;28;20431;-72
2021/03/18 08:14:28;;;;;;;12.47;7.90;;;;;;;9.01;100.00;100889.34;5084270;28;20406;-81
2021/03/18 08:16:53;;;;;;;10.53;6.97;;;;;;;8.81;100.00;100889.66;5082012;28;20168;-71
2021/03/18 08:19:20;;;;;;;13.70;8.10;;;;;;;9.08;100.00;100874.97;5069696;28;20168;-81
2021/03/18 08:21:51;;;;;;;10.90;7.40;;;;;;;9.50;100.00;100875.97;5070765;28;20168;-70
2021/03/18 08:24:22;;;;;;;8.50;5.57;;;;;;;9.77;100.00;100870.84;5071109;28;20478;-77
2021/03/18 08:26:49;;;;;;;10.97;7.07;;;;;;;9.59;100.00;100877.19;5069530;28;20445;-74
2021/03/18 08:29:33;;;;;;;13.70;7.80;;;;;;;9.61;100.00;100878.78;5070306;28;20414;-80
2021/03/18 08:32:02;;;;;;;7.20;4.70;;;;;;;9.88;100.00;100880.66;5070620;28;20418;-74
2021/03/18 08:34:47;;;;;;;7.63;4.70;;;;;;;9.32;100.00;100877.06;5070526;28;20919;-79
2021/03/18 08:37:14;;;;;;;7.40;4.17;;;;;;;9.47;100.00;100873.53;5071230;28;20456;-70
2021/03/18 08:39:46;;;;;;;6.80;4.30;;;;;;;9.81;100.00;100867.06;5069922;28;21035;-79
2021/03/18 08:42:30;;;;;;;8.40;4.70;;;;;;;9.57;100.00;100877.28;5070529;28;20415;-81
2021/03/18 08:44:57;;;;;;;10.33;4.83;;;;;;;9.57;100.00;100884.31;5067207;28;20442;-82
2021/03/18 08:47:44;;;;;;;6.47;4.03;;;;;;;9.49;100.00;100874.28;5052733;28;20858;-80
2021/03/18 08:50:34;;;;;;;9.93;4.37;;;;;;;9.29;100.00;100887.72;5076956;28;20425;-81
2021/03/18 08:53:01;;;;;;;8.77;4.83;;;;;;;8.99;100.00;100890.34;5071571;28;20410;-80
2021/03/18 08:55:38;;;;;;;6.30;4.10;;;;;;;9.12;100.00;100892.19;5072870;28;20434;-80
2021/03/18 08:58:08;;;;;;;5.70;4.10;;;;;;;8.93;100.00;100894.19;5070569;28;20445;-81
2021/03/18 09:00:35;;;;;;;12.97;4.47;;;;;;;9.07;100.00;100909.97;5070385;28;20460;-79
2021/03/18 09:03:02;;;;;;;6.53;4.40;;;;;;;9.06;100.00;100899.56;5070221;28;20443;-78
2021/03/18 09:05:28;;;;;;;8.20;4.37;;;;;;;9.37;100.00;100902.09;5070200;28;20449;-78
2021/03/18 09:07:56;;;;;;;13.00;3.97;;;;;;;9.72;100.00;100896.50;5069695;28;20446;-78
2021/03/18 09:10:30;;;;;;;7.00;4.60;;;;;;;10.05;100.00;100898.84;5072503;28;20179;-78
2021/03/18 09:12:57;;;;;;;11.10;5.20;;;;;;;10.09;100.00;100895.09;5090873;28;20430;-78
2021/03/18 09:15:35;;;;;;;5.60;3.67;;;;;;;10.35;100.00;100890.00;5072480;28;20468;-82
2021/03/18 09:18:22;;;;;;;4.67;2.90;;;;;;;10.46;100.00;100879.66;5071334;28;20826;-79
2021/03/18 09:20:53;;;;;;;6.20;4.00;;;;;;;10.53;100.00;100884.44;5067970;28;20501;-78
2021/03/18 09:23:23;;;;;;;6.80;3.87;;;;;;;10.33;100.00;100887.47;5070637;28;20403;-79
2021/03/18 09:25:51;;;;;;;6.87;3.67;;;;;;;10.68;100.00;100901.00;5070805;28;20435;-77
2021/03/18 09:28:18;;;;;;;7.13;4.23;;;;;;;10.63;100.00;100889.94;5070659;28;20403;-79
2021/03/18 09:30:48;;;;;;;6.03;3.67;;;;;;;10.61;100.00;100898.84;5051731;28;20427;-78
2021/03/18 09:33:36;;;;;;;7.23;4.10;;;;;;;10.67;100.00;100901.94;5080304;28;20635;-77
2021/03/18 09:36:20;;;;;;;7.03;3.93;;;;;;;11.18;100.00;100895.97;5067388;28;20434;-80
2021/03/18 09:39:09;;;;;;;6.47;3.30;;;;;;;11.21;100.00;100893.16;5070466;28;20880;-79
2021/03/18 09:41:40;;;;;;;7.30;4.00;;;;;;;11.61;100.00;100883.38;5070506;28;20468;-73
2021/03/18 09:44:15;;;;;;;5.80;4.30;;;;;;;11.78;100.00;100890.94;5070292;28;20438;-80
2021/03/18 09:46:46;;;;;;;6.50;4.30;;;;;;;12.13;100.00;100893.78;5070448;28;20417;-81
2021/03/18 09:49:12;;;;;;;6.93;5.40;;;;;;;11.52;100.00;100905.91;5070747;28;20399;-83
2021/03/18 09:51:43;;;;;;;9.43;4.70;;;;;;;11.43;100.00;100908.34;5077327;28;20448;-84
2021/03/18 09:54:11;;;;;;;5.80;3.83;;;;;;;11.15;100.00;100910.19;5071188;28;20165;-81
2021/03/18 09:56:39;;;;;;;5.30;3.70;;;;;;;10.88;100.00;100920.72;5069394;28;20415;-81
2021/03/18 09:59:07;;;;;;;5.47;3.90;;;;;;;10.64;100.00;100917.88;5070369;28;20398;-81
2021/03/18 10:01:33;;;;;;;6.67;4.43;;;;;;;10.68;100.00;100916.75;5068518;28;20507;-81
2021/03/18 10:04:07;;;;;;;7.20;4.90;;;;;;;10.26;100.00;100922.94;5072046;28;20457;-79
2021/03/18 10:06:37;;;;;;;9.30;4.30;;;;;;;10.13;100.00;100929.88;5069785;28;20494;-79
2021/03/18 10:09:14;;;;;;;6.87;4.40;;;;;;;10.08;100.00;100951.16;5068021;28;20480;-81
2021/03/18 10:11:42;;;;;;;7.77;4.60;;;;;;;9.93;100.00;100941.59;5071905;28;20924;-79
2021/03/18 10:14:09;;;;;;;5.90;4.50;;;;;;;10.28;100.00;100950.81;5071688;28;20877;-79
2021/03/18 10:16:36;;;;;;;8.17;5.30;;;;;;;10.61;100.00;100948.78;5071690;28;20425;-77
2021/03/18 10:19:05;;;;;;;6.37;4.33;;;;;;;10.92;100.00;100939.75;5072546;28;20427;-80
2021/03/18 10:21:32;;;;;;;10.47;6.10;;;;;;;10.81;100.00;100938.69;5072560;28;20603;-77
2021/03/18 10:23:58;;;;;;;7.47;4.30;;;;;;;11.30;100.00;100943.34;5054667;28;20584;-70
2021/03/18 10:26:27;;;;;;;7.43;4.40;;;;;;;11.24;100.00;100937.66;5072053;28;20521;-74
2021/03/18 10:29:04;;;;;;;8.13;5.23;;;;;;;11.85;100.00;100930.91;5073432;28;20180;-81
2021/03/18 10:31:31;;;;;;;9.43;5.43;;;;;;;12.55;100.00;100933.84;5072397;28;20406;-81
2021/03/18 10:34:00;;;;;;;6.20;4.40;;;;;;;12.84;100.00;100939.63;5072786;28;20399;-70
2021/03/18 10:36:44;;;;;;;5.37;3.30;;;;;;;12.65;100.00;100932.22;5072218;28;20564;-71
2021/03/18 10:39:12;;;;;;;6.07;3.97;;;;;;;12.42;100.00;100943.56;5069555;28;20487;-73
2021/03/18 10:41:57;;;;;;;5.47;4.10;;;;;;;11.77;100.00;100934.03;5073643;28;20985;-72
2021/03/18 10:44:38;;;;;;;7.50;4.23;;;;;;;11.25;100.00;100950.69;5072717;28;20533;-76
2021/03/18 10:47:19;;;;;;;7.80;4.17;;;;;;;11.00;100.00;100953.25;5071147;28;20415;-77
2021/03/18 10:50:02;;;;;;;7.80;5.10;;;;;;;11.21;100.00;100946.59;5073553;28;20422;-79
2021/03/18 10:52:28;;;;;;;8.83;5.53;;;;;;;11.45;100.00;100953.78;5072796;28;20493;-78
2021/03/18 10:54:56;;;;;;;7.17;4.93;;;;;;;11.45;100.00;100954.63;5075387;28;20510;-71
2021/03/18 10:57:23;;;;;;;7.00;4.90;;;;;;;11.93;100.00;100958.38;5071527;28;20240;-73
2021/03/18 11:00:00;;;;;;;6.93;4.60;;;;;;;11.31;100.00;100967.84;5071493;28;20438;-75
2021/03/18 11:02:26;;;;;;;12.10;4.77;;;;;;;11.86;100.00;100941.34;5058722;28;20967;-74
2021/03/18 11:04:57;;;;;;;6.53;4.90;;;;;;;12.67;100.00;100938.22;5083622;28;20782;-72
2021/03/18 11:07:23;;;;;;;6.27;2.97;;;;;;;12.59;100.00;100948.47;5071432;28;20931;-73
2021/03/18 11:10:11;;;;;;;5.80;4.13;;;;;;;12.00;100.00;100950.91;5072170;28;20413;-75
2021/03/18 11:12:41;;;;;;;7.60;4.00;;;;;;;11.64;100.00;100943.72;5054152;28;20618;-72
2021/03/18 11:15:09;;;;;;;5.80;4.27;;;;;;;11.78;100.00;100948.03;5071380;28;20423;-70
2021/03/18 11:17:36;;;;;;;8.13;3.80;;;;;;;11.80;100.00;100951.41;5070895;28;20446;-74
2021/03/18 11:20:09;;;;;;;5.93;3.80;;;;;;;11.18;100.00;100953.81;5072025;28;20823;-72
2021/03/18 11:22:35;;;;;;;6.73;4.10;;;;;;;11.09;100.00;100947.38;5070026;28;20442;-73
2021/03/18 11:25:01;;;;;;;13.20;4.67;;;;;;;11.51;100.00;100950.75;5059945;28;20425;-73
2021/03/18 11:27:26;;;;;;;6.87;4.73;;;;;;;11.98;100.00;100951.97;5069671;28;21200;-71
2021/03/18 11:29:52;;;;;;;7.67;5.13;;;;;;;11.98;100.00;100947.53;5068926;28;20418;-72
2021/03/18 11:32:23;;;;;;;9.33;4.87;;;;;;;11.78;100.00;100950.66;5062513;28;20173;-70